Time;durP1;ratioP1;P1;durP2;ratioP2;P2;SDS_P1;SDS_P2;PMS_P1;PMS_P2;Temp;Humidity;BMP_temperature;BMP_pressure;BME280_temperature;BME280_humidity;BME280_pressure;Samples;Min_cycle;Max_cycle;Signal;HPM_P1;HPM_P2
2021/12/15 00:02:20;;;;;;;94.47;33.13;;;;;;;8.00;100.00;102585.22;4959615;28;20043;-82
2021/12/15 00:04:51;;;;;;;104.57;37.03;;;;;;;8.19;100.00;102616.28;4941999;28;20684;-82
2021/12/15 00:07:19;;;;;;;101.90;35.50;;;;;;;8.13;100.00;102605.59;4960155;28;20070;-82
2021/12/15 00:09:45;;;;;;;101.88;36.58;;;;;;;8.14;100.00;102607.41;4968463;28;20027;-81
2021/12/15 00:12:13;;;;;;;110.57;36.15;;;;;;;8.18;100.00;102614.53;4975024;28;20523;-81
2021/12/15 00:14:40;;;;;;;102.95;36.17;;;;;;;8.19;100.00;102618.13;4987949;28;20115;-81
2021/12/15 00:17:05;;;;;;;96.00;35.58;;;;;;;8.18;100.00;102619.06;4972256;28;20118;-81
2021/12/15 00:19:31;;;;;;;110.93;37.03;;;;;;;8.21;100.00;102617.09;4965989;28;20051;-82
2021/12/15 00:21:57;;;;;;;110.43;38.20;;;;;;;8.07;100.00;102592.25;4959312;29;20027;-82
2021/12/15 00:24:23;;;;;;;108.28;35.58;;;;;;;8.22;100.00;102615.28;4942708;29;20467;-82
2021/12/15 00:26:49;;;;;;;101.47;35.47;;;;;;;8.15;100.00;102605.53;4959105;29;20031;-82
2021/12/15 00:29:14;;;;;;;105.55;35.22;;;;;;;8.18;100.00;102606.34;4961673;28;20035;-82
2021/12/15 00:31:42;;;;;;;94.47;34.15;;;;;;;8.16;100.00;102605.47;4967006;28;20390;-82
2021/12/15 00:34:08;;;;;;;93.65;35.15;;;;;;;8.23;100.00;102625.22;4973993;28;20484;-82
2021/12/15 00:36:34;;;;;;;99.18;35.63;;;;;;;8.22;100.00;102620.72;4958338;29;20114;-82
2021/12/15 00:39:01;;;;;;;105.80;36.08;;;;;;;8.22;100.00;102620.72;4961624;28;20035;-82
2021/12/15 00:41:26;;;;;;;98.88;35.30;;;;;;;8.17;100.00;102626.38;4974709;28;20063;-82
2021/12/15 00:43:52;;;;;;;107.40;37.90;;;;;;;8.08;100.00;102607.63;4958393;29;20134;-81
2021/12/15 00:46:18;;;;;;;106.88;35.05;;;;;;;8.16;100.00;102624.59;4960151;28;20031;-82
2021/12/15 00:48:43;;;;;;;108.63;36.67;;;;;;;8.13;100.00;102616.53;4980662;28;20035;-80
2021/12/15 00:51:09;;;;;;;123.63;40.38;;;;;;;8.12;100.00;102617.50;4968822;28;20023;-81
2021/12/15 00:53:34;;;;;;;124.82;38.55;;;;;;;8.14;100.00;102618.31;4941940;29;20019;-81
2021/12/15 00:56:00;;;;;;;111.43;36.17;;;;;;;8.13;100.00;102604.72;4959071;28;20110;-81
2021/12/15 00:58:25;;;;;;;116.88;37.95;;;;;;;8.14;100.00;102596.47;4974153;28;20053;-79
2021/12/15 01:00:57;;;;;;;118.68;39.28;;;;;;;8.14;100.00;102607.41;4977816;28;20057;-81
2021/12/15 01:03:23;;;;;;;118.97;38.25;;;;;;;8.14;100.00;102615.56;4972250;28;20032;-81
2021/12/15 01:05:52;;;;;;;119.70;39.13;;;;;;;8.10;100.00;102608.50;4959182;28;20555;-81
2021/12/15 01:08:22;;;;;;;135.38;41.05;;;;;;;8.18;100.00;102606.34;4956937;28;20047;-80
2021/12/15 01:11:07;;;;;;;136.75;40.83;;;;;;;8.13;100.00;102616.53;4946538;28;20035;-81
2021/12/15 01:19:51;;;;;;;132.20;41.78;;;;;;;8.15;100.00;102611.91;4960428;28;20117;-81
2021/12/15 01:22:33;;;;;;;129.00;38.78;;;;;;;8.18;100.00;102610.88;4954920;29;20031;-81
2021/12/15 01:25:06;;;;;;;124.53;40.83;;;;;;;8.14;100.00;102607.41;4969423;28;20056;-81
2021/12/15 01:27:33;;;;;;;116.60;38.42;;;;;;;8.18;100.00;102619.06;4965390;28;20051;-80
2021/12/15 01:29:59;;;;;;;124.53;40.17;;;;;;;8.12;100.00;102609.31;4973011;28;20031;-81
2021/12/15 01:32:25;;;;;;;117.93;38.85;;;;;;;8.15;100.00;102616.47;4953843;29;20031;-81
2021/12/15 01:34:51;;;;;;;120.82;39.50;;;;;;;8.14;100.00;102607.41;4951408;28;20030;-81
2021/12/15 01:37:17;;;;;;;108.38;35.75;;;;;;;8.08;100.00;102596.72;4943770;29;20046;-81
2021/12/15 01:39:44;;;;;;;127.65;37.38;;;;;;;8.13;100.00;102612.91;4963846;28;20031;-81
2021/12/15 01:42:09;;;;;;;120.25;39.13;;;;;;;8.11;100.00;102615.69;4960716;28;20039;-81
2021/12/15 01:47:20;;;;;;;135.43;37.88;;;;;;;8.10;100.00;102611.22;4961560;28;20035;-81
2021/12/15 01:49:50;;;;;;;127.03;37.60;;;;;;;8.02;100.00;102597.00;4966988;28;20075;-81
2021/12/15 01:52:21;;;;;;;136.57;37.70;;;;;;;8.07;100.00;102605.88;4976694;28;20039;-81
2021/12/15 01:54:50;;;;;;;124.20;38.05;;;;;;;8.11;100.00;102618.44;4965520;28;20043;-81
2021/12/15 01:57:17;;;;;;;122.15;36.97;;;;;;;8.06;100.00;102617.72;4980452;28;20070;-81
2021/12/15 01:59:46;;;;;;;123.35;37.25;;;;;;;8.09;100.00;102623.94;4961993;28;20034;-80
2021/12/15 02:02:14;;;;;;;128.85;37.08;;;;;;;8.12;100.00;102624.75;4959274;29;20035;-81
2021/12/15 02:04:39;;;;;;;124.00;37.05;;;;;;;8.08;100.00;102621.28;4959983;28;20031;-81
2021/12/15 02:07:08;;;;;;;129.77;36.42;;;;;;;8.08;100.00;102630.38;4960588;28;20468;-81
2021/12/15 02:12:22;;;;;;;119.00;36.90;;;;;;;8.06;100.00;102624.06;4953681;29;20031;-81
2021/12/15 02:14:49;;;;;;;107.88;34.80;;;;;;;8.11;100.00;102634.78;4971650;28;20067;-81
2021/12/15 02:17:16;;;;;;;114.63;35.53;;;;;;;8.07;100.00;102636.75;4973071;28;20039;-81
2021/12/15 02:19:41;;;;;;;120.95;35.10;;;;;;;8.10;100.00;102635.78;4976146;28;20031;-81
2021/12/15 02:22:07;;;;;;;130.18;37.65;;;;;;;8.08;100.00;102629.47;4962852;28;20039;-81
2021/12/15 02:24:35;;;;;;;132.20;38.05;;;;;;;8.00;100.00;102628.88;4959563;29;20450;-81
2021/12/15 02:27:02;;;;;;;129.55;35.75;;;;;;;7.98;100.00;102633.50;4978056;28;20126;-81
2021/12/15 02:29:36;;;;;;;118.10;35.58;;;;;;;8.09;100.00;102642.16;4971890;28;20126;-81
2021/12/15 02:32:17;;;;;;;127.93;36.08;;;;;;;8.05;100.00;102629.56;4959595;28;20039;-81
2021/12/15 02:37:22;;;;;;;146.20;39.28;;;;;;;8.08;100.00;102630.38;4959569;28;20042;-81
2021/12/15 02:39:53;;;;;;;129.40;36.80;;;;;;;8.07;100.00;102628.59;4975008;28;20031;-81
2021/12/15 02:42:21;;;;;;;129.25;36.50;;;;;;;8.05;100.00;102627.75;4975188;28;20023;-81
2021/12/15 02:44:47;;;;;;;130.52;35.08;;;;;;;8.04;100.00;102625.09;4961580;28;20035;-80
2021/12/15 02:47:20;;;;;;;142.57;37.13;;;;;;;8.07;100.00;102630.44;4975648;28;20045;-79
2021/12/15 02:49:48;;;;;;;127.60;35.03;;;;;;;8.03;100.00;102631.50;4946241;29;20110;-80
2021/12/15 02:52:14;;;;;;;132.40;36.88;;;;;;;8.08;100.00;102635.81;4942886;29;20046;-81
2021/12/15 02:54:40;;;;;;;133.27;36.25;;;;;;;8.04;100.00;102631.44;4948006;29;20047;-80
2021/12/15 02:57:10;;;;;;;135.20;37.53;;;;;;;8.08;100.00;102637.66;4949380;29;20036;-81
2021/12/15 02:59:47;;;;;;;139.10;37.70;;;;;;;8.06;100.00;102628.63;4956595;28;20020;-80
2021/12/15 03:05:04;;;;;;;141.70;37.17;;;;;;;8.06;100.00;102634.09;4957758;28;20460;-81
2021/12/15 03:07:39;;;;;;;133.30;36.10;;;;;;;8.05;100.00;102632.31;4958662;28;20047;-81
2021/12/15 03:15:37;;;;;;;130.98;34.88;;;;;;;8.11;100.00;102629.34;4958615;29;20059;-81
2021/12/15 03:18:02;;;;;;;140.52;35.75;;;;;;;8.09;100.00;102628.53;4974499;28;20035;-81
2021/12/15 03:20:30;;;;;;;133.18;34.45;;;;;;;8.08;100.00;102624.91;4942990;29;20043;-81
2021/12/15 03:22:57;;;;;;;131.48;35.72;;;;;;;8.06;100.00;102621.34;4960426;29;20062;-80
2021/12/15 03:25:28;;;;;;;136.35;35.92;;;;;;;8.07;100.00;102620.41;4959030;28;20085;-81
2021/12/15 03:36:22;;;;;;;117.65;31.92;;;;;;;8.09;100.00;102623.94;4959708;28;20050;-81
2021/12/15 03:38:48;;;;;;;117.72;32.10;;;;;;;8.06;100.00;102629.53;4967692;28;20027;-81
2021/12/15 03:41:13;;;;;;;124.10;32.10;;;;;;;8.08;100.00;102629.47;4958059;28;20066;-81
2021/12/15 03:43:39;;;;;;;131.68;34.22;;;;;;;8.10;100.00;102641.22;4958055;29;20096;-81
2021/12/15 03:46:13;;;;;;;120.75;33.53;;;;;;;8.10;100.00;102630.31;4958289;28;20050;-81
2021/12/15 03:48:42;;;;;;;134.63;34.30;;;;;;;8.09;100.00;102629.41;4961950;28;20118;-80
2021/12/15 03:51:08;;;;;;;123.60;33.20;;;;;;;8.09;100.00;102639.44;4957636;29;20035;-81
2021/12/15 03:53:34;;;;;;;122.93;32.58;;;;;;;8.07;100.00;102630.44;4974302;28;20058;-81
2021/12/15 03:56:01;;;;;;;125.47;34.22;;;;;;;8.07;100.00;102636.75;4970292;28;20035;-81
2021/12/15 03:58:26;;;;;;;122.75;32.65;;;;;;;8.13;100.00;102649.25;4941720;28;20031;-81
2021/12/15 04:01:04;;;;;;;123.35;33.92;;;;;;;8.10;100.00;102652.13;4959955;28;20546;-81
2021/12/15 04:03:36;;;;;;;117.97;32.75;;;;;;;8.11;100.00;102642.97;4959203;28;20054;-81
2021/12/15 04:06:04;;;;;;;131.43;34.35;;;;;;;8.08;100.00;102641.28;4950016;29;20035;-81
2021/12/15 04:08:30;;;;;;;129.23;33.20;;;;;;;8.07;100.00;102635.88;4970829;28;20039;-82
2021/12/15 04:10:58;;;;;;;121.10;32.10;;;;;;;8.09;100.00;102637.59;4971676;28;20394;-81
2021/12/15 04:13:24;;;;;;;116.80;31.65;;;;;;;8.12;100.00;102649.31;4946218;29;20064;-81
2021/12/15 04:15:56;;;;;;;124.25;33.92;;;;;;;8.11;100.00;102642.97;4958206;28;20039;-80
2021/12/15 04:18:24;;;;;;;114.77;31.93;;;;;;;8.07;100.00;102647.69;4963134;28;20054;-81
2021/12/15 04:20:52;;;;;;;121.55;33.92;;;;;;;8.06;100.00;102628.63;4938224;29;20031;-81
2021/12/15 04:23:20;;;;;;;120.82;32.47;;;;;;;8.13;100.00;102656.56;4959655;28;20027;-81
2021/12/15 04:25:48;;;;;;;121.03;31.73;;;;;;;8.08;100.00;102645.81;4973838;28;20061;-81
2021/12/15 04:28:22;;;;;;;111.65;31.30;;;;;;;8.09;100.00;102647.63;4966263;28;20075;-81
2021/12/15 04:30:53;;;;;;;106.38;30.65;;;;;;;8.13;100.00;102657.44;4977438;28;20043;-81
2021/12/15 04:33:45;;;;;;;105.65;29.70;;;;;;;8.13;100.00;102653.84;4971259;28;20126;-81
2021/12/15 04:36:12;;;;;;;110.85;30.80;;;;;;;8.13;100.00;102662.03;4957179;29;20043;-81
2021/12/15 04:38:40;;;;;;;103.55;31.17;;;;;;;8.06;100.00;102650.47;4959540;28;20031;-81
2021/12/15 04:41:11;;;;;;;113.60;31.60;;;;;;;8.18;100.00;102654.53;4980036;28;20097;-81
2021/12/15 04:43:40;;;;;;;111.45;30.35;;;;;;;8.14;100.00;102645.59;4974944;28;20038;-81
2021/12/15 04:46:07;;;;;;;105.80;30.92;;;;;;;8.12;100.00;102661.13;4953435;29;20030;-81
2021/12/15 04:48:34;;;;;;;106.85;29.55;;;;;;;8.13;100.00;102657.44;4941556;29;20062;-81
2021/12/15 04:51:00;;;;;;;94.20;28.85;;;;;;;8.14;100.00;102648.31;4958185;28;20054;-81
2021/12/15 04:53:25;;;;;;;96.43;29.02;;;;;;;8.14;100.00;102650.16;4958507;28;20368;-81
2021/12/15 04:55:51;;;;;;;102.93;29.08;;;;;;;8.14;100.00;102658.34;4940568;29;20047;-80
2021/12/15 04:58:16;;;;;;;100.45;31.17;;;;;;;8.10;100.00;102663.94;4941571;29;21820;-81
2021/12/15 05:00:51;;;;;;;95.07;29.80;;;;;;;8.13;100.00;102665.63;4962884;28;20030;-82
2021/12/15 05:03:17;;;;;;;104.75;30.88;;;;;;;8.18;100.00;102670.91;4957386;28;20055;-81
2021/12/15 05:05:42;;;;;;;103.30;30.00;;;;;;;8.18;100.00;102669.09;4959137;28;20039;-81
2021/12/15 05:08:08;;;;;;;88.25;28.15;;;;;;;8.18;100.00;102669.09;4959952;28;20055;-81
2021/12/15 05:10:35;;;;;;;92.55;29.00;;;;;;;8.13;100.00;102662.91;4976891;28;20039;-81
2021/12/15 05:13:01;;;;;;;97.38;29.65;;;;;;;8.18;100.00;102665.44;4962935;28;20452;-81
2021/12/15 05:15:27;;;;;;;95.63;29.52;;;;;;;8.09;100.00;102658.53;4963150;28;20031;-81
2021/12/15 05:17:53;;;;;;;88.40;28.13;;;;;;;8.20;100.00;102678.09;4969189;28;20047;-82
2021/12/15 05:20:19;;;;;;;86.60;28.20;;;;;;;8.25;100.00;102673.34;4961830;29;20467;-81
2021/12/15 05:22:45;;;;;;;86.38;28.05;;;;;;;8.28;100.00;102678.69;4977352;28;20039;-82
2021/12/15 05:25:10;;;;;;;83.25;28.20;;;;;;;8.08;100.00;102656.75;4977941;28;20046;-82
2021/12/15 05:27:38;;;;;;;91.97;28.17;;;;;;;8.19;100.00;102678.16;4963905;28;20471;-82
2021/12/15 05:30:06;;;;;;;82.60;26.70;;;;;;;8.20;100.00;102693.56;4963378;28;20444;-81
2021/12/15 05:32:31;;;;;;;85.32;27.70;;;;;;;8.23;100.00;102682.53;4948922;29;20093;-83
2021/12/15 05:34:59;;;;;;;85.18;27.08;;;;;;;8.20;100.00;102680.81;4962557;28;20047;-82
2021/12/15 05:37:26;;;;;;;84.47;27.92;;;;;;;8.25;100.00;102680.66;4961893;28;20031;-81
2021/12/15 05:39:53;;;;;;;81.65;27.50;;;;;;;8.19;100.00;102689.94;4964182;28;20047;-82
2021/12/15 05:42:20;;;;;;;81.43;27.23;;;;;;;8.22;100.00;102689.84;4976252;28;20395;-81
2021/12/15 05:44:47;;;;;;;76.25;27.58;;;;;;;8.21;100.00;102690.75;4976800;28;20027;-82
2021/12/15 05:47:14;;;;;;;74.50;26.00;;;;;;;8.21;100.00;102690.75;4963629;28;20032;-81
2021/12/15 05:49:41;;;;;;;88.25;28.65;;;;;;;8.19;100.00;102695.41;4960699;28;20502;-81
2021/12/15 05:52:07;;;;;;;75.10;26.45;;;;;;;8.18;100.00;102690.91;4955882;29;20490;-79
2021/12/15 05:54:33;;;;;;;81.65;26.67;;;;;;;8.14;100.00;102680.19;4973807;28;20036;-79
2021/12/15 05:56:59;;;;;;;85.82;28.65;;;;;;;8.14;100.00;102682.91;4962008;28;20475;-80
2021/12/15 05:59:25;;;;;;;84.40;27.52;;;;;;;8.17;100.00;102694.59;4946684;28;20042;-80
2021/12/15 06:01:51;;;;;;;80.85;27.80;;;;;;;8.20;100.00;102697.19;4957981;28;20063;-80
2021/12/15 06:04:17;;;;;;;74.38;28.15;;;;;;;8.19;100.00;102692.69;4949181;29;20373;-80
2021/12/15 06:06:42;;;;;;;80.90;27.35;;;;;;;8.14;100.00;102696.56;4958651;29;20039;-80
2021/12/15 06:09:10;;;;;;;87.20;28.17;;;;;;;8.22;100.00;102706.19;4959102;28;20063;-79
2021/12/15 06:11:39;;;;;;;76.47;26.25;;;;;;;8.19;100.00;102705.44;4958736;28;20093;-79
2021/12/15 06:14:05;;;;;;;77.55;26.83;;;;;;;8.18;100.00;102699.09;4958310;28;20031;-79
2021/12/15 06:16:32;;;;;;;68.97;25.35;;;;;;;8.11;100.00;102700.28;4940312;29;20054;-79
2021/12/15 06:18:57;;;;;;;79.53;25.02;;;;;;;8.15;100.00;102701.03;4957229;28;20062;-79
2021/12/15 06:21:24;;;;;;;77.22;25.42;;;;;;;8.20;100.00;102699.94;4958857;28;20582;-79
2021/12/15 06:23:49;;;;;;;80.38;25.83;;;;;;;8.22;100.00;102717.13;4957924;28;20470;-80
2021/12/15 06:26:18;;;;;;;75.63;25.33;;;;;;;8.18;100.00;102715.47;4963600;28;20035;-80
2021/12/15 06:28:44;;;;;;;79.75;26.52;;;;;;;8.19;100.00;102719.09;4953863;28;20035;-81
2021/12/15 06:31:13;;;;;;;83.53;26.33;;;;;;;8.13;100.00;102703.81;4960820;28;20062;-80
2021/12/15 06:33:40;;;;;;;84.13;27.08;;;;;;;8.21;100.00;102717.19;4974767;28;20459;-80
2021/12/15 06:36:07;;;;;;;78.22;25.13;;;;;;;8.19;100.00;102714.50;4958053;29;20407;-81
2021/12/15 06:38:37;;;;;;;78.82;26.77;;;;;;;8.14;100.00;102707.47;4958509;28;20027;-80
2021/12/15 06:41:05;;;;;;;85.65;27.13;;;;;;;8.22;100.00;102717.13;4945309;28;20058;-80
2021/12/15 06:43:31;;;;;;;83.07;27.30;;;;;;;8.18;100.00;102715.47;4973980;28;20028;-80
2021/12/15 06:59:28;;;;;;;93.45;28.35;;;;;;;8.26;100.00;102718.78;4960461;29;20047;-82
2021/12/15 07:01:53;;;;;;;91.07;26.80;;;;;;;8.25;100.00;102713.41;4978144;28;20035;-82
2021/12/15 07:04:21;;;;;;;86.30;28.38;;;;;;;8.26;100.00;102716.06;4958459;29;20075;-82
2021/12/15 07:06:49;;;;;;;92.28;27.50;;;;;;;8.23;100.00;102724.38;4951307;29;20039;-82
2021/12/15 07:09:15;;;;;;;92.15;26.95;;;;;;;8.26;100.00;102723.34;4972936;28;20042;-81
2021/12/15 07:11:41;;;;;;;93.63;27.60;;;;;;;8.23;100.00;102731.63;4943899;29;20063;-82
2021/12/15 07:14:07;;;;;;;97.32;27.85;;;;;;;8.22;100.00;102740.78;4975248;28;20035;-80
2021/12/15 07:16:34;;;;;;;93.65;28.48;;;;;;;8.32;100.00;102738.59;4958567;29;20038;-82
2021/12/15 07:19:10;;;;;;;105.50;30.70;;;;;;;8.26;100.00;102735.16;4966156;28;20042;-82
2021/12/15 07:21:39;;;;;;;95.97;28.15;;;;;;;8.23;100.00;102742.56;4957678;29;20038;-82
2021/12/15 07:24:06;;;;;;;94.28;27.65;;;;;;;8.22;100.00;102738.94;4951789;28;20045;-80
2021/12/15 07:26:33;;;;;;;95.70;27.88;;;;;;;8.27;100.00;102742.38;4955070;29;20050;-79
2021/12/15 07:28:58;;;;;;;101.50;29.65;;;;;;;8.26;100.00;102748.81;4957762;29;20498;-78
2021/12/15 07:31:24;;;;;;;108.65;29.02;;;;;;;8.21;100.00;102739.00;4977002;28;20051;-79
2021/12/15 07:33:50;;;;;;;108.20;30.08;;;;;;;8.25;100.00;102749.75;4973547;28;20039;-80
2021/12/15 07:36:16;;;;;;;102.30;30.15;;;;;;;8.25;100.00;102760.66;4960127;28;20109;-78
2021/12/15 07:38:42;;;;;;;110.40;31.00;;;;;;;8.27;100.00;102761.50;4962354;28;20539;-78
2021/12/15 07:41:29;;;;;;;108.97;30.83;;;;;;;8.25;100.00;102752.47;4966231;28;20039;-78
2021/12/15 07:43:58;;;;;;;110.53;29.48;;;;;;;8.25;100.00;102754.31;4968966;28;20114;-78
2021/12/15 07:46:24;;;;;;;107.22;29.30;;;;;;;8.27;100.00;102761.50;4971145;28;20043;-80
2021/12/15 07:48:50;;;;;;;114.00;30.33;;;;;;;8.25;100.00;102759.78;4974959;28;20027;-80
2021/12/15 07:51:16;;;;;;;106.90;29.10;;;;;;;8.43;100.00;102756.38;4960602;28;20050;-82
2021/12/15 07:53:42;;;;;;;113.88;31.98;;;;;;;8.34;100.00;102762.13;4960763;28;20491;-81
2021/12/15 07:56:08;;;;;;;106.07;29.98;;;;;;;8.28;100.00;102756.94;4958902;29;20064;-80
2021/12/15 07:58:34;;;;;;;115.47;30.38;;;;;;;8.25;100.00;102760.66;4966426;28;20039;-81
2021/12/15 08:01:02;;;;;;;124.30;33.08;;;;;;;8.31;100.00;102766.81;4972882;28;20071;-81
2021/12/15 08:03:29;;;;;;;102.75;29.63;;;;;;;8.32;100.00;102764.03;4948918;29;20636;-82
2021/12/15 08:05:56;;;;;;;109.97;31.83;;;;;;;8.30;100.00;102763.22;4958941;28;20038;-81
2021/12/15 08:08:22;;;;;;;114.38;31.42;;;;;;;8.30;100.00;102765.94;4957342;28;20057;-82
2021/12/15 08:10:48;;;;;;;115.15;30.42;;;;;;;8.27;100.00;102766.06;4958602;29;20027;-80
2021/12/15 08:13:15;;;;;;;105.35;30.67;;;;;;;8.29;100.00;102761.44;4942534;29;20363;-81
2021/12/15 08:15:42;;;;;;;127.22;32.72;;;;;;;8.29;100.00;102769.63;4943856;29;20098;-81
2021/12/15 08:18:07;;;;;;;117.68;33.38;;;;;;;8.32;100.00;102766.78;4942917;29;20062;-81
2021/12/15 08:20:35;;;;;;;110.32;30.45;;;;;;;8.39;100.00;102778.34;4957912;29;20034;-81
2021/12/15 08:23:01;;;;;;;116.53;31.23;;;;;;;8.33;100.00;102774.03;4960025;28;20086;-81
2021/12/15 08:25:27;;;;;;;123.88;32.03;;;;;;;8.31;100.00;102764.09;4958801;29;20075;-81
2021/12/15 08:27:53;;;;;;;130.50;31.63;;;;;;;8.34;100.00;102775.78;4942778;28;20054;-81
2021/12/15 08:30:26;;;;;;;114.35;30.55;;;;;;;8.39;100.00;102779.22;4958558;28;20043;-80
2021/12/15 08:32:55;;;;;;;109.07;30.95;;;;;;;8.42;100.00;102778.22;4973736;28;20042;-79
2021/12/15 08:35:25;;;;;;;115.57;28.92;;;;;;;8.39;100.00;102781.06;4959802;29;20035;-79
2021/12/15 08:37:51;;;;;;;115.43;31.50;;;;;;;8.41;100.00;102776.44;4957259;28;20506;-80
2021/12/15 08:40:19;;;;;;;121.82;32.00;;;;;;;8.38;100.00;102782.91;4960298;29;20031;-80
2021/12/15 08:42:45;;;;;;;117.60;30.10;;;;;;;8.37;100.00;102782.97;4974963;28;20059;-80
2021/12/15 08:45:12;;;;;;;131.93;32.80;;;;;;;8.33;100.00;102774.03;4960790;28;20031;-80
2021/12/15 08:47:37;;;;;;;119.20;31.88;;;;;;;8.39;100.00;102779.22;4963304;28;20027;-81
2021/12/15 08:50:06;;;;;;;123.20;30.40;;;;;;;8.40;100.00;102780.13;4963423;29;20126;-80
2021/12/15 08:52:33;;;;;;;122.88;30.60;;;;;;;8.43;100.00;102783.66;4947484;29;20086;-80
2021/12/15 08:54:58;;;;;;;114.30;30.27;;;;;;;8.39;100.00;102778.34;4943871;29;20376;-80
2021/12/15 08:57:24;;;;;;;111.45;31.38;;;;;;;8.43;100.00;102786.38;4959311;29;20050;-80
2021/12/15 08:59:50;;;;;;;117.60;31.05;;;;;;;8.42;100.00;102783.69;4960412;28;20067;-80
2021/12/15 09:02:16;;;;;;;120.35;33.00;;;;;;;8.43;100.00;102777.31;4969674;28;20566;-80
2021/12/15 09:04:41;;;;;;;124.88;34.00;;;;;;;8.45;100.00;102780.88;4957952;29;20162;-79
2021/12/15 09:07:07;;;;;;;120.50;32.10;;;;;;;8.50;100.00;102792.50;4961407;28;20447;-80
2021/12/15 09:09:33;;;;;;;116.78;31.88;;;;;;;8.55;100.00;102798.66;4977569;28;20451;-79
2021/12/15 09:11:59;;;;;;;111.70;32.35;;;;;;;8.52;100.00;102789.72;4962900;28;20094;-79
2021/12/15 09:14:25;;;;;;;114.78;31.45;;;;;;;8.49;100.00;102785.25;4979372;28;20468;-80
2021/12/15 09:16:55;;;;;;;109.22;31.70;;;;;;;8.50;100.00;102792.50;4962103;29;20031;-80
2021/12/15 09:19:21;;;;;;;118.00;32.45;;;;;;;8.54;100.00;102796.00;4980679;28;20035;-81
2021/12/15 09:21:46;;;;;;;118.85;33.22;;;;;;;8.56;100.00;102799.53;4963062;29;20038;-80
2021/12/15 09:24:14;;;;;;;100.75;29.58;;;;;;;8.56;100.00;102800.44;4964287;28;20067;-80
2021/12/15 09:26:40;;;;;;;109.07;29.90;;;;;;;8.60;100.00;102798.47;4964279;28;20043;-81
2021/12/15 09:29:06;;;;;;;103.78;31.60;;;;;;;8.60;100.00;102802.09;4981073;28;20039;-81
2021/12/15 09:31:33;;;;;;;101.07;30.33;;;;;;;8.60;100.00;102803.94;4979769;28;20031;-80
2021/12/15 09:33:59;;;;;;;106.70;31.52;;;;;;;8.59;100.00;102797.59;4964207;29;20091;-81
2021/12/15 09:36:26;;;;;;;112.60;31.92;;;;;;;8.58;100.00;102804.00;4979701;28;20031;-81
2021/12/15 09:38:57;;;;;;;116.85;30.88;;;;;;;8.63;100.00;102806.56;4964425;28;20388;-80
2021/12/15 09:41:23;;;;;;;109.47;31.42;;;;;;;8.60;100.00;102806.69;4962730;29;20047;-80
2021/12/15 09:43:52;;;;;;;104.85;32.33;;;;;;;8.67;100.00;102816.41;4962567;29;20480;-80
2021/12/15 09:46:36;;;;;;;105.18;31.35;;;;;;;8.69;100.00;102806.31;4980287;28;20443;-81
2021/12/15 09:57:27;;;;;;;103.40;31.17;;;;;;;8.71;100.00;102822.66;4974932;28;20035;-82
2021/12/15 10:19:27;;;;;;;109.32;32.95;;;;;;;8.85;100.00;102819.34;4966470;29;20035;-82
2021/12/15 10:22:15;;;;;;;106.90;31.65;;;;;;;8.86;100.00;102821.16;4962974;29;20529;-81
2021/12/15 10:24:46;;;;;;;99.88;30.20;;;;;;;9.04;100.00;102825.84;4976806;28;20114;-82
2021/12/15 10:27:16;;;;;;;102.28;32.33;;;;;;;8.93;100.00;102829.00;4976737;28;20047;-81
2021/12/15 10:30:25;;;;;;;104.65;31.73;;;;;;;8.98;100.00;102824.25;4980245;28;20039;-81
2021/12/15 10:33:28;;;;;;;108.10;32.63;;;;;;;8.97;100.00;102821.59;4964285;29;20066;-81
2021/12/15 10:36:04;;;;;;;102.07;31.02;;;;;;;8.99;100.00;102828.78;4948816;29;20055;-81
2021/12/15 10:38:44;;;;;;;101.00;30.83;;;;;;;9.00;100.00;102835.13;4964732;28;20050;-81
2021/12/15 10:41:12;;;;;;;111.28;31.33;;;;;;;9.01;100.00;102824.13;4963809;29;20057;-82
2021/12/15 10:43:50;;;;;;;99.00;30.88;;;;;;;9.04;100.00;102823.13;4963358;29;20039;-82
2021/12/15 10:46:30;;;;;;;107.30;33.70;;;;;;;9.06;100.00;102831.25;4982624;28;20057;-80
2021/12/15 10:49:12;;;;;;;104.15;33.28;;;;;;;9.08;100.00;102832.97;4985910;28;20050;-81
2021/12/15 10:51:39;;;;;;;99.95;33.13;;;;;;;9.07;100.00;102828.47;4970600;29;20046;-81
2021/12/15 10:54:11;;;;;;;102.25;33.10;;;;;;;9.05;100.00;102819.44;4971033;29;20032;-81
2021/12/15 10:56:40;;;;;;;106.82;35.40;;;;;;;9.11;100.00;102821.03;4985127;28;20038;-81
2021/12/15 10:59:11;;;;;;;106.90;34.03;;;;;;;9.11;100.00;102826.50;4980162;28;20063;-81
2021/12/15 11:01:55;;;;;;;105.05;32.95;;;;;;;9.16;100.00;102825.34;4961911;29;20039;-80
2021/12/15 11:04:20;;;;;;;109.55;34.22;;;;;;;9.17;100.00;102829.84;4964713;29;20059;-82
2021/12/15 11:07:01;;;;;;;92.47;31.70;;;;;;;9.22;100.00;102829.69;4942643;29;20032;-81
2021/12/15 11:09:51;;;;;;;99.55;32.92;;;;;;;9.29;100.00;102820.25;4959811;29;20042;-80
2021/12/15 11:12:28;;;;;;;104.90;33.58;;;;;;;9.25;100.00;102821.34;4960693;28;20031;-80
2021/12/15 11:15:00;;;;;;;101.65;34.60;;;;;;;9.25;100.00;102826.81;4960638;28;20089;-81
2021/12/15 11:17:33;;;;;;;98.47;31.52;;;;;;;9.28;100.00;102817.59;4957503;29;20118;-80
2021/12/15 11:20:09;;;;;;;100.47;32.53;;;;;;;9.30;100.00;102819.31;4957936;29;20138;-80
2021/12/15 11:22:39;;;;;;;94.88;32.03;;;;;;;9.33;100.00;102826.47;4943963;29;20051;-80
2021/12/15 11:25:10;;;;;;;96.32;34.50;;;;;;;9.32;100.00;102813.78;4957932;28;20399;-79
2021/12/15 11:27:37;;;;;;;96.80;31.58;;;;;;;9.30;100.00;102805.63;4974830;28;20065;-80
2021/12/15 11:30:11;;;;;;;94.47;33.55;;;;;;;9.33;100.00;102815.53;4963521;28;20051;-80
2021/12/15 11:32:49;;;;;;;92.45;32.05;;;;;;;9.28;100.00;102815.75;4959798;28;20027;-79
2021/12/15 11:35:27;;;;;;;97.97;32.92;;;;;;;9.29;100.00;102806.59;4975990;28;20035;-82
2021/12/15 11:37:58;;;;;;;96.55;33.00;;;;;;;9.38;100.00;102819.00;4958309;29;20039;-79
2021/12/15 11:40:34;;;;;;;98.68;34.50;;;;;;;9.38;100.00;102817.13;4960341;28;20027;-80
2021/12/15 11:43:00;;;;;;;94.82;32.15;;;;;;;9.34;100.00;102801.81;4960776;28;20054;-78
2021/12/15 11:45:27;;;;;;;92.80;32.70;;;;;;;9.35;100.00;102805.44;4961094;28;20043;-79
2021/12/15 11:48:13;;;;;;;100.25;32.70;;;;;;;9.45;100.00;102808.69;4960023;29;20035;-79
2021/12/15 11:50:42;;;;;;;94.35;32.38;;;;;;;9.40;100.00;102800.66;4961812;28;20035;-80
2021/12/15 11:53:23;;;;;;;98.43;33.13;;;;;;;9.45;100.00;102808.69;4974721;28;20105;-80
2021/12/15 11:55:49;;;;;;;90.57;31.35;;;;;;;9.50;100.00;102812.09;4943435;29;20035;-80
2021/12/15 11:58:14;;;;;;;98.00;32.50;;;;;;;9.51;100.00;102811.13;4974016;28;20031;-80
2021/12/15 12:00:40;;;;;;;99.55;32.67;;;;;;;9.51;100.00;102795.63;4955923;29;20029;-80
2021/12/15 12:03:06;;;;;;;90.70;33.25;;;;;;;9.53;100.00;102811.97;4959443;28;20071;-81
2021/12/15 12:05:35;;;;;;;78.22;31.20;;;;;;;9.46;100.00;102797.69;4959523;28;20086;-80
2021/12/15 12:08:07;;;;;;;78.93;30.35;;;;;;;9.55;100.00;102800.00;4956893;29;20047;-80
2021/12/15 12:10:46;;;;;;;91.18;33.15;;;;;;;9.60;100.00;102801.66;4958950;28;20042;-80
2021/12/15 12:13:26;;;;;;;83.88;32.42;;;;;;;9.62;100.00;102807.94;4959211;29;20027;-81
2021/12/15 12:16:01;;;;;;;84.63;30.42;;;;;;;9.65;100.00;102788.66;4957777;29;20475;-80
2021/12/15 12:18:29;;;;;;;78.90;29.98;;;;;;;9.68;100.00;102783.06;4939220;29;20435;-82
2021/12/15 12:21:03;;;;;;;87.00;32.00;;;;;;;9.60;100.00;102791.59;4972256;28;20394;-80
2021/12/15 12:23:31;;;;;;;78.80;29.80;;;;;;;9.59;100.00;102789.81;4976053;28;20031;-81
2021/12/15 12:26:05;;;;;;;79.47;31.13;;;;;;;9.71;100.00;102793.88;4958236;28;20102;-80